createdAt,value
2023-05-08T00:00:34.042Z,102401.06
2023-05-08T00:05:35.851Z,102399.00
2023-05-08T00:10:40.214Z,102403.53
2023-05-08T00:15:46.492Z,102410.06
2023-05-08T00:20:48.199Z,102401.78
2023-05-08T00:25:49.937Z,102397.28
2023-05-08T00:30:52.358Z,102406.94
2023-05-08T00:36:01.976Z,102408.44
2023-05-08T00:41:06.035Z,102401.69
2023-05-08T00:46:09.927Z,102393.22
2023-05-08T00:51:14.512Z,102392.84
2023-05-08T00:56:21.292Z,102393.31
2023-05-08T01:01:23.836Z,102392.63
2023-05-08T01:06:29.477Z,102388.69
2023-05-08T01:11:37.031Z,102390.03
2023-05-08T01:17:07.179Z,102392.28
2023-05-08T01:22:26.456Z,102390.06
2023-05-08T01:28:05.012Z,102384.16
2023-05-08T01:33:30.629Z,102394.50
2023-05-08T01:38:42.612Z,102391.25
2023-05-08T01:44:09.736Z,102397.63
2023-05-08T01:49:32.810Z,102384.13
2023-05-08T01:54:41.397Z,102397.69
2023-05-08T01:59:44.584Z,102404.88
2023-05-08T02:04:47.132Z,102389.94
2023-05-08T02:09:49.088Z,102386.56
2023-05-08T02:14:53.366Z,102393.91
2023-05-08T02:19:58.472Z,102394.50
2023-05-08T02:25:01.212Z,102385.25
2023-05-08T02:30:06.568Z,102379.91
2023-05-08T02:35:09.545Z,102378.88
2023-05-08T02:40:12.359Z,102384.28
2023-05-08T02:45:14.625Z,102369.09
2023-05-08T02:50:51.676Z,102362.78
2023-05-08T02:55:58.159Z,102366.91
2023-05-08T03:01:06.551Z,102368.03
2023-05-08T03:06:13.340Z,102350.16
2023-05-08T03:11:21.736Z,102350.84
2023-05-08T03:16:25.718Z,102350.44
2023-05-08T03:21:29.542Z,102358.44
2023-05-08T03:26:34.387Z,102356.75
2023-05-08T03:31:39.526Z,102359.13
2023-05-08T03:36:42.967Z,102362.06
2023-05-08T03:41:45.866Z,102355.47
2023-05-08T03:46:50.887Z,102356.84
2023-05-08T03:51:56.405Z,102365.22
2023-05-08T03:56:58.275Z,102377.69
2023-05-08T04:02:30.837Z,102358.16
2023-05-08T04:07:39.557Z,102357.16
2023-05-08T04:12:56.862Z,102364.31
2023-05-08T04:18:15.009Z,102367.13
2023-05-08T04:23:21.643Z,102373.84
2023-05-08T04:28:25.108Z,102375.81
2023-05-08T04:33:29.619Z,102373.25
2023-05-08T04:38:36.954Z,102377.63
2023-05-08T04:43:42.107Z,102372.31
2023-05-08T04:48:43.957Z,102389.09
2023-05-08T04:53:46.066Z,102388.50
2023-05-08T04:58:48.104Z,102389.78
2023-05-08T05:03:53.077Z,102402.16
2023-05-08T05:09:02.716Z,102396.50
2023-05-08T05:14:04.740Z,102405.53
2023-05-08T05:19:07.140Z,102406.38
2023-05-08T05:24:09.450Z,102400.63
2023-05-08T05:29:11.432Z,102397.84
2023-05-08T05:34:15.691Z,102406.28
2023-05-08T05:39:17.542Z,102407.72
2023-05-08T05:44:19.430Z,102405.47
2023-05-08T05:49:23.582Z,102407.56
2023-05-08T05:54:25.622Z,102402.06
2023-05-08T05:59:30.093Z,102399.34
2023-05-08T06:04:34.721Z,102405.00
2023-05-08T06:09:38.771Z,102401.88
2023-05-08T06:14:40.566Z,102395.69
2023-05-08T06:19:42.383Z,102391.25
2023-05-08T06:24:46.629Z,102396.97
2023-05-08T06:29:53.086Z,102387.22
2023-05-08T06:34:57.142Z,102388.50
2023-05-08T06:40:11.624Z,102378.22
2023-05-08T06:45:19.608Z,102381.56
2023-05-08T06:50:21.446Z,102383.41
2023-05-08T06:55:26.523Z,102395.13
2023-05-08T07:00:28.304Z,102382.56
2023-05-08T07:05:32.573Z,102379.31
2023-05-08T07:10:38.805Z,102372.88
2023-05-08T07:15:40.674Z,102386.28
2023-05-08T07:20:42.461Z,102376.75
2023-05-08T07:25:46.437Z,102380.97
2023-05-08T07:30:48.207Z,102375.94
2023-05-08T07:35:54.681Z,102365.94
2023-05-08T07:41:02.126Z,102369.50
2023-05-08T07:46:06.161Z,102358.88
2023-05-08T07:51:11.229Z,102375.84
2023-05-08T07:56:15.751Z,102373.38
2023-05-08T08:01:18.268Z,102371.69
2023-05-08T08:06:22.487Z,102379.88
2023-05-08T08:11:24.260Z,102380.91
2023-05-08T08:16:26.982Z,102381.84
2023-05-08T08:21:28.897Z,102378.06
2023-05-08T08:26:33.535Z,102382.97
2023-05-08T08:31:37.770Z,102378.09
2023-05-08T08:36:42.037Z,102380.75
2023-05-08T08:41:44.009Z,102376.53
2023-05-08T08:46:51.212Z,102373.84
2023-05-08T08:52:01.920Z,102360.47
2023-05-08T08:57:07.999Z,102371.03
2023-05-08T09:02:17.903Z,102359.00
2023-05-08T09:07:22.841Z,102357.63
2023-05-08T09:12:27.037Z,102350.78
2023-05-08T09:17:28.832Z,102344.66
2023-05-08T09:22:30.658Z,102338.53
2023-05-08T09:27:33.119Z,102348.25
2023-05-08T09:32:37.907Z,102345.88
2023-05-08T09:37:41.617Z,102341.47
2023-05-08T09:42:43.854Z,102341.03
2023-05-08T09:47:48.290Z,102344.38
2023-05-08T09:52:54.827Z,102343.09
2023-05-08T09:58:00.000Z,102341.50
2023-05-08T10:03:03.255Z,102338.97
2023-05-08T10:08:26.925Z,102339.03
2023-05-08T10:13:31.137Z,102340.78
2023-05-08T10:18:37.846Z,102340.63
2023-05-08T10:23:40.162Z,102341.59
2023-05-08T10:29:14.968Z,102328.22
2023-05-08T10:34:22.952Z,102330.34
2023-05-08T10:39:25.806Z,102326.59
2023-05-08T10:44:29.512Z,102320.38
2023-05-08T10:49:42.676Z,102316.41
2023-05-08T10:55:04.351Z,102321.66
2023-05-08T11:00:14.302Z,102310.31
2023-05-08T11:05:17.225Z,102317.53
2023-05-08T11:10:25.174Z,102303.88
2023-05-08T11:15:42.130Z,102298.34
2023-05-08T11:21:18.326Z,102288.56
2023-05-08T11:26:22.933Z,102305.03
2023-05-08T11:31:24.882Z,102296.56
2023-05-08T11:36:29.573Z,102289.75
2023-05-08T11:41:31.296Z,102300.59
2023-05-08T11:46:50.664Z,102291.19
2023-05-08T11:51:58.169Z,102279.66
2023-05-08T11:57:03.200Z,102274.53
2023-05-08T12:02:09.496Z,102275.22
2023-05-08T12:07:14.062Z,102268.94
2023-05-08T12:12:15.806Z,102265.56
2023-05-08T12:17:19.153Z,102270.38
2023-05-08T12:22:21.975Z,102261.69
2023-05-08T12:27:27.222Z,102262.56
2023-05-08T12:32:31.229Z,102259.66
2023-05-08T12:37:35.503Z,102250.31
2023-05-08T12:42:47.853Z,102244.22
2023-05-08T12:47:54.290Z,102239.53
2023-05-08T12:53:03.464Z,102247.47
2023-05-08T12:58:15.258Z,102248.56
2023-05-08T13:03:30.403Z,102232.09
2023-05-08T13:08:37.197Z,102231.69
2023-05-08T13:13:41.393Z,102236.75
2023-05-08T13:18:45.668Z,102235.03
2023-05-08T13:23:49.778Z,102228.28
2023-05-08T13:28:52.132Z,102233.13
2023-05-08T13:33:55.101Z,102225.28
2023-05-08T13:38:57.463Z,102210.78
2023-05-08T13:43:59.147Z,102216.38
2023-05-08T13:49:00.886Z,102209.19
2023-05-08T13:54:02.731Z,102204.06
2023-05-08T13:59:04.593Z,102204.69
2023-05-08T14:04:11.168Z,102203.69
2023-05-08T14:09:15.346Z,102201.22
2023-05-08T14:14:19.496Z,102185.19
2023-05-08T14:19:23.472Z,102180.78
2023-05-08T14:24:27.302Z,102172.69
2023-05-08T14:29:29.101Z,102164.81
2023-05-08T14:34:35.706Z,102165.22
2023-05-08T14:39:37.611Z,102169.81
2023-05-08T14:44:47.087Z,102154.63
2023-05-08T14:49:48.871Z,102163.50
2023-05-08T14:54:53.665Z,102152.50
2023-05-08T15:00:00.212Z,102146.50
2023-05-08T15:05:10.979Z,102144.91
2023-05-08T15:10:21.340Z,102133.09
2023-05-08T15:15:25.401Z,102141.19
2023-05-08T15:20:27.093Z,102146.72
2023-05-08T15:25:31.058Z,102142.22
2023-05-08T15:30:32.793Z,102132.22
2023-05-08T15:35:34.621Z,102121.00
2023-05-08T15:40:41.622Z,102118.22
2023-05-08T15:45:43.376Z,102133.94
2023-05-08T15:50:45.040Z,102138.00
2023-05-08T15:55:49.152Z,102140.94
2023-05-08T16:00:53.531Z,102129.13
2023-05-08T16:05:55.511Z,102128.78
2023-05-08T16:10:57.264Z,102124.22
2023-05-08T16:16:06.267Z,102110.63
2023-05-08T16:21:12.232Z,102111.72
2023-05-08T16:26:16.681Z,102113.78
2023-05-08T16:31:20.815Z,102110.91
2023-05-08T16:36:22.681Z,102105.22
2023-05-08T16:41:27.948Z,102096.53
2023-05-08T16:46:34.317Z,102088.63
2023-05-08T16:51:36.061Z,102084.53
2023-05-08T16:56:37.859Z,102083.00
2023-05-08T17:01:42.131Z,102083.84
2023-05-08T17:06:46.199Z,102072.00
2023-05-08T17:11:50.379Z,102078.00
2023-05-08T17:16:54.225Z,102071.75
2023-05-08T17:21:57.554Z,102082.47
2023-05-08T17:27:01.547Z,102083.59
2023-05-08T17:32:05.781Z,102079.56
2023-05-08T17:37:09.795Z,102080.63
2023-05-08T17:42:11.510Z,102081.41
2023-05-08T17:47:13.618Z,102079.59
2023-05-08T17:52:17.743Z,102079.94
2023-05-08T17:57:19.474Z,102087.09
2023-05-08T18:02:21.182Z,102083.28
2023-05-08T18:07:25.347Z,102079.50
2023-05-08T18:12:27.067Z,102084.31
2023-05-08T18:17:29.628Z,102082.94
2023-05-08T18:22:31.367Z,102086.25
2023-05-08T18:27:35.639Z,102090.84
2023-05-08T18:32:42.101Z,102086.22
2023-05-08T18:37:46.073Z,102086.38
2023-05-08T18:42:47.853Z,102088.63
2023-05-08T18:47:49.707Z,102083.88
2023-05-08T18:52:51.504Z,102084.81
2023-05-08T18:57:54.132Z,102082.28
2023-05-08T19:02:58.163Z,102085.50
2023-05-08T19:08:02.651Z,102086.56
2023-05-08T19:13:04.533Z,102086.13
2023-05-08T19:18:06.591Z,102082.59
2023-05-08T19:23:08.315Z,102094.75
2023-05-08T19:28:09.981Z,102103.13
2023-05-08T19:33:11.817Z,102101.72
2023-05-08T19:38:16.089Z,102095.56
2023-05-08T19:43:20.000Z,102090.47
2023-05-08T19:48:21.995Z,102088.25
2023-05-08T19:53:23.850Z,102082.47
2023-05-08T19:58:30.546Z,102090.25
2023-05-08T20:03:35.410Z,102093.81
2023-05-08T20:08:37.165Z,102087.34
2023-05-08T20:13:39.328Z,102080.91
2023-05-08T20:18:46.234Z,102077.94
2023-05-08T20:23:48.369Z,102081.69
2023-05-08T20:28:53.422Z,102091.91
2023-05-08T20:33:57.660Z,102081.25
2023-05-08T20:38:59.327Z,102080.84
2023-05-08T20:44:03.281Z,102077.94
2023-05-08T20:49:06.044Z,102073.31
2023-05-08T20:54:10.112Z,102071.22
2023-05-08T20:59:11.948Z,102064.53
2023-05-08T21:04:13.675Z,102064.06
2023-05-08T21:09:18.006Z,102056.97
2023-05-08T21:14:24.591Z,102045.84
2023-05-08T21:19:26.290Z,102038.53
2023-05-08T21:24:30.414Z,102035.78
2023-05-08T21:29:34.925Z,102034.09
2023-05-08T21:34:36.646Z,102035.88
2023-05-08T21:39:41.328Z,102018.06
2023-05-08T21:44:43.202Z,102011.31
2023-05-08T21:49:44.907Z,102016.44
2023-05-08T21:54:52.453Z,102003.22
2023-05-08T21:59:56.657Z,102006.09
2023-05-08T22:05:00.812Z,102008.56
2023-05-08T22:10:02.523Z,102007.94
2023-05-08T22:15:09.447Z,102007.56
2023-05-08T22:20:19.814Z,102004.03
2023-05-08T22:25:25.231Z,101995.66
2023-05-08T22:30:29.271Z,101986.84
2023-05-08T22:35:35.725Z,101975.75
2023-05-08T22:40:37.416Z,101975.13
2023-05-08T22:45:41.482Z,101982.34
2023-05-08T22:50:45.699Z,101967.53
2023-05-08T22:55:49.734Z,101959.38
2023-05-08T23:00:53.850Z,101953.06
2023-05-08T23:05:55.658Z,101943.63
2023-05-08T23:10:57.370Z,101949.19
2023-05-08T23:16:04.370Z,101942.22
2023-05-08T23:21:08.664Z,101936.97
2023-05-08T23:26:12.617Z,101932.31
2023-05-08T23:31:17.072Z,101935.59
2023-05-08T23:36:21.246Z,101928.63
2023-05-08T23:41:26.193Z,101930.59
2023-05-08T23:46:28.007Z,101918.22
2023-05-08T23:51:29.739Z,101921.63
2023-05-08T23:56:35.957Z,101908.81
